sensor_id;sensor_type;location;lat;lon;timestamp;temperature;humidity
20459;DHT22;10388;52.314;7.938;2022-12-18T00:00:49;-9.80;99.90
20459;DHT22;10388;52.314;7.938;2022-12-18T00:03:20;-9.80;99.90
20459;DHT22;10388;52.314;7.938;2022-12-18T00:05:51;-9.80;99.90
20459;DHT22;10388;52.314;7.938;2022-12-18T00:08:22;-9.80;99.90
20459;DHT22;10388;52.314;7.938;2022-12-18T00:10:53;-9.90;99.90
20459;DHT22;10388;52.314;7.938;2022-12-18T00:13:23;-9.90;99.90
20459;DHT22;10388;52.314;7.938;2022-12-18T00:15:54;-9.90;99.90
20459;DHT22;10388;52.314;7.938;2022-12-18T00:18:24;-9.90;99.90
20459;DHT22;10388;52.314;7.938;2022-12-18T00:20:59;-10.00;99.90
20459;DHT22;10388;52.314;7.938;2022-12-18T00:23:34;-9.90;99.90
20459;DHT22;10388;52.314;7.938;2022-12-18T00:26:08;-10.00;99.90
20459;DHT22;10388;52.314;7.938;2022-12-18T00:28:40;-10.00;99.90
20459;DHT22;10388;52.314;7.938;2022-12-18T00:31:14;-10.00;99.90
20459;DHT22;10388;52.314;7.938;2022-12-18T00:33:45;-10.00;99.90
20459;DHT22;10388;52.314;7.938;2022-12-18T00:36:22;-10.00;99.90
20459;DHT22;10388;52.314;7.938;2022-12-18T00:38:55;-10.10;99.90
20459;DHT22;10388;52.314;7.938;2022-12-18T00:41:27;-10.00;99.90
20459;DHT22;10388;52.314;7.938;2022-12-18T00:44:17;-10.10;99.90
20459;DHT22;10388;52.314;7.938;2022-12-18T00:46:48;-10.10;99.90
20459;DHT22;10388;52.314;7.938;2022-12-18T00:49:19;-10.10;99.90
20459;DHT22;10388;52.314;7.938;2022-12-18T00:51:50;-10.10;99.90
20459;DHT22;10388;52.314;7.938;2022-12-18T00:54:21;-10.10;99.90
20459;DHT22;10388;52.314;7.938;2022-12-18T00:56:51;-10.20;99.90
20459;DHT22;10388;52.314;7.938;2022-12-18T00:59:22;-10.20;99.90
20459;DHT22;10388;52.314;7.938;2022-12-18T01:50:47;-10.40;99.90
20459;DHT22;10388;52.314;7.938;2022-12-18T01:53:20;-10.30;99.90
20459;DHT22;10388;52.314;7.938;2022-12-18T01:55:55;-10.30;99.90
20459;DHT22;10388;52.314;7.938;2022-12-18T01:58:48;-10.30;99.90
20459;DHT22;10388;52.314;7.938;2022-12-18T02:01:22;-10.40;99.90
20459;DHT22;10388;52.314;7.938;2022-12-18T02:03:53;-10.40;99.90
20459;DHT22;10388;52.314;7.938;2022-12-18T02:06:32;-10.40;99.90
20459;DHT22;10388;52.314;7.938;2022-12-18T02:09:12;-10.40;99.90
20459;DHT22;10388;52.314;7.938;2022-12-18T02:14:38;-10.40;99.90
20459;DHT22;10388;52.314;7.938;2022-12-18T02:17:23;-10.50;99.90
20459;DHT22;10388;52.314;7.938;2022-12-18T02:20:05;-10.50;99.90
20459;DHT22;10388;52.314;7.938;2022-12-18T02:22:49;-10.50;99.90
20459;DHT22;10388;52.314;7.938;2022-12-18T02:28:31;-10.50;99.90
20459;DHT22;10388;52.314;7.938;2022-12-18T02:31:05;-10.50;99.90
20459;DHT22;10388;52.314;7.938;2022-12-18T02:33:37;-10.50;99.90
20459;DHT22;10388;52.314;7.938;2022-12-18T02:36:09;-10.50;99.90
20459;DHT22;10388;52.314;7.938;2022-12-18T02:38:52;-10.50;99.90
20459;DHT22;10388;52.314;7.938;2022-12-18T02:41:23;-10.50;99.90
20459;DHT22;10388;52.314;7.938;2022-12-18T02:44:00;-10.50;99.90
20459;DHT22;10388;52.314;7.938;2022-12-18T02:46:42;-10.50;99.90
20459;DHT22;10388;52.314;7.938;2022-12-18T02:52:30;-10.50;99.90
20459;DHT22;10388;52.314;7.938;2022-12-18T02:55:33;-10.50;99.90
20459;DHT22;10388;52.314;7.938;2022-12-18T03:01:16;-10.50;99.90
20459;DHT22;10388;52.314;7.938;2022-12-18T03:04:01;-10.60;99.90
20459;DHT22;10388;52.314;7.938;2022-12-18T03:06:40;-10.60;99.90
20459;DHT22;10388;52.314;7.938;2022-12-18T03:09:28;-10.60;99.90
20459;DHT22;10388;52.314;7.938;2022-12-18T03:17:41;-10.60;99.90
20459;DHT22;10388;52.314;7.938;2022-12-18T03:20:17;-10.60;99.90
20459;DHT22;10388;52.314;7.938;2022-12-18T03:22:53;-10.60;99.90
20459;DHT22;10388;52.314;7.938;2022-12-18T03:25:26;-10.50;99.90
20459;DHT22;10388;52.314;7.938;2022-12-18T03:28:00;-10.50;99.90
20459;DHT22;10388;52.314;7.938;2022-12-18T03:30:33;-10.50;99.90
20459;DHT22;10388;52.314;7.938;2022-12-18T03:33:10;-10.40;99.90
20459;DHT22;10388;52.314;7.938;2022-12-18T03:35:42;-10.50;99.90
20459;DHT22;10388;52.314;7.938;2022-12-18T03:38:14;-10.50;99.90
20459;DHT22;10388;52.314;7.938;2022-12-18T03:40:59;-10.50;99.90
20459;DHT22;10388;52.314;7.938;2022-12-18T03:43:52;-10.50;99.90
20459;DHT22;10388;52.314;7.938;2022-12-18T03:49:19;-10.60;99.90
20459;DHT22;10388;52.314;7.938;2022-12-18T03:52:09;-10.60;99.90
20459;DHT22;10388;52.314;7.938;2022-12-18T03:54:42;-10.60;99.90
20459;DHT22;10388;52.314;7.938;2022-12-18T03:57:20;-10.60;99.90
20459;DHT22;10388;52.314;7.938;2022-12-18T04:00:14;-10.60;99.90
20459;DHT22;10388;52.314;7.938;2022-12-18T04:02:54;-10.70;99.90
20459;DHT22;10388;52.314;7.938;2022-12-18T04:05:26;-10.70;99.90
20459;DHT22;10388;52.314;7.938;2022-12-18T04:07:58;-10.70;99.90
20459;DHT22;10388;52.314;7.938;2022-12-18T04:10:29;-10.70;99.90
20459;DHT22;10388;52.314;7.938;2022-12-18T04:13:00;-10.70;99.90
20459;DHT22;10388;52.314;7.938;2022-12-18T04:15:34;-10.80;99.90
20459;DHT22;10388;52.314;7.938;2022-12-18T04:18:05;-10.80;99.90
20459;DHT22;10388;52.314;7.938;2022-12-18T04:20:36;-10.80;99.90
20459;DHT22;10388;52.314;7.938;2022-12-18T04:23:06;-10.80;99.90
20459;DHT22;10388;52.314;7.938;2022-12-18T04:25:37;-10.80;99.90
20459;DHT22;10388;52.314;7.938;2022-12-18T04:28:07;-10.80;99.90
20459;DHT22;10388;52.314;7.938;2022-12-18T04:30:38;-10.80;99.90
20459;DHT22;10388;52.314;7.938;2022-12-18T04:33:10;-10.80;99.90
20459;DHT22;10388;52.314;7.938;2022-12-18T04:35:41;-10.80;99.90
20459;DHT22;10388;52.314;7.938;2022-12-18T04:38:12;-10.80;99.90
20459;DHT22;10388;52.314;7.938;2022-12-18T04:40:43;-10.80;99.90
20459;DHT22;10388;52.314;7.938;2022-12-18T04:43:13;-10.60;99.90
20459;DHT22;10388;52.314;7.938;2022-12-18T04:45:44;-10.60;99.90
20459;DHT22;10388;52.314;7.938;2022-12-18T04:48:15;-10.50;99.90
20459;DHT22;10388;52.314;7.938;2022-12-18T04:50:46;-10.40;99.90
20459;DHT22;10388;52.314;7.938;2022-12-18T04:53:17;-10.20;99.90
20459;DHT22;10388;52.314;7.938;2022-12-18T04:55:47;-10.20;99.90
20459;DHT22;10388;52.314;7.938;2022-12-18T04:58:18;-10.10;99.90
20459;DHT22;10388;52.314;7.938;2022-12-18T05:00:48;-10.10;99.90
20459;DHT22;10388;52.314;7.938;2022-12-18T05:03:19;-10.00;99.90
20459;DHT22;10388;52.314;7.938;2022-12-18T05:05:50;-9.90;99.90
20459;DHT22;10388;52.314;7.938;2022-12-18T05:08:21;-9.90;99.90
20459;DHT22;10388;52.314;7.938;2022-12-18T05:11:09;-9.90;99.90
20459;DHT22;10388;52.314;7.938;2022-12-18T05:13:41;-9.90;99.90
20459;DHT22;10388;52.314;7.938;2022-12-18T05:16:12;-9.90;99.90
20459;DHT22;10388;52.314;7.938;2022-12-18T05:18:43;-9.70;99.90
20459;DHT22;10388;52.314;7.938;2022-12-18T05:21:13;-9.70;99.90
20459;DHT22;10388;52.314;7.938;2022-12-18T05:23:44;-9.70;99.90
20459;DHT22;10388;52.314;7.938;2022-12-18T05:26:17;-9.70;99.90
20459;DHT22;10388;52.314;7.938;2022-12-18T05:28:47;-9.70;99.90
20459;DHT22;10388;52.314;7.938;2022-12-18T05:31:18;-9.70;99.90
20459;DHT22;10388;52.314;7.938;2022-12-18T05:33:48;-9.70;99.90
20459;DHT22;10388;52.314;7.938;2022-12-18T05:36:19;-9.70;99.90
20459;DHT22;10388;52.314;7.938;2022-12-18T05:38:49;-9.70;99.90
20459;DHT22;10388;52.314;7.938;2022-12-18T05:41:20;-9.80;99.90
20459;DHT22;10388;52.314;7.938;2022-12-18T05:43:50;-9.60;99.90
20459;DHT22;10388;52.314;7.938;2022-12-18T05:46:21;-9.70;99.90
20459;DHT22;10388;52.314;7.938;2022-12-18T05:48:52;-9.60;99.90
20459;DHT22;10388;52.314;7.938;2022-12-18T05:51:22;-9.60;99.90
20459;DHT22;10388;52.314;7.938;2022-12-18T05:53:53;-9.50;99.90
20459;DHT22;10388;52.314;7.938;2022-12-18T05:56:23;-9.50;99.90
20459;DHT22;10388;52.314;7.938;2022-12-18T05:58:54;-9.50;99.90
20459;DHT22;10388;52.314;7.938;2022-12-18T06:01:26;-9.50;99.90
20459;DHT22;10388;52.314;7.938;2022-12-18T06:03:57;-9.50;99.90
20459;DHT22;10388;52.314;7.938;2022-12-18T06:06:28;-9.50;99.90
20459;DHT22;10388;52.314;7.938;2022-12-18T06:08:59;-9.50;99.90
20459;DHT22;10388;52.314;7.938;2022-12-18T06:11:31;-9.50;99.90
20459;DHT22;10388;52.314;7.938;2022-12-18T06:14:02;-9.40;99.90
20459;DHT22;10388;52.314;7.938;2022-12-18T06:16:33;-9.40;99.90
20459;DHT22;10388;52.314;7.938;2022-12-18T06:19:05;-9.50;99.90
20459;DHT22;10388;52.314;7.938;2022-12-18T06:21:35;-9.40;99.90
20459;DHT22;10388;52.314;7.938;2022-12-18T06:24:06;-9.40;99.90
20459;DHT22;10388;52.314;7.938;2022-12-18T06:26:40;-9.40;99.90
20459;DHT22;10388;52.314;7.938;2022-12-18T06:29:11;-9.40;99.90
20459;DHT22;10388;52.314;7.938;2022-12-18T06:31:41;-9.30;99.90
20459;DHT22;10388;52.314;7.938;2022-12-18T06:34:12;-9.20;99.90
20459;DHT22;10388;52.314;7.938;2022-12-18T06:36:43;-9.30;99.90
20459;DHT22;10388;52.314;7.938;2022-12-18T06:39:13;-9.40;99.90
20459;DHT22;10388;52.314;7.938;2022-12-18T06:41:44;-9.30;99.90
20459;DHT22;10388;52.314;7.938;2022-12-18T06:44:15;-9.40;99.90
20459;DHT22;10388;52.314;7.938;2022-12-18T06:46:45;-9.40;99.90
20459;DHT22;10388;52.314;7.938;2022-12-18T06:49:16;-9.40;99.90
20459;DHT22;10388;52.314;7.938;2022-12-18T06:51:47;-9.30;99.90
20459;DHT22;10388;52.314;7.938;2022-12-18T06:54:17;-9.20;99.90
20459;DHT22;10388;52.314;7.938;2022-12-18T06:56:48;-9.20;99.90
20459;DHT22;10388;52.314;7.938;2022-12-18T06:59:18;-9.20;99.90
20459;DHT22;10388;52.314;7.938;2022-12-18T07:01:49;-9.20;99.90
20459;DHT22;10388;52.314;7.938;2022-12-18T07:04:19;-9.30;99.90
20459;DHT22;10388;52.314;7.938;2022-12-18T07:06:50;-9.30;99.90
20459;DHT22;10388;52.314;7.938;2022-12-18T07:09:20;-9.30;99.90
20459;DHT22;10388;52.314;7.938;2022-12-18T07:11:51;-9.30;99.90
20459;DHT22;10388;52.314;7.938;2022-12-18T07:14:21;-9.20;99.90
20459;DHT22;10388;52.314;7.938;2022-12-18T07:16:52;-9.20;99.90
20459;DHT22;10388;52.314;7.938;2022-12-18T07:19:24;-9.20;99.90
20459;DHT22;10388;52.314;7.938;2022-12-18T07:21:54;-9.10;99.90
20459;DHT22;10388;52.314;7.938;2022-12-18T07:24:25;-9.10;99.90
20459;DHT22;10388;52.314;7.938;2022-12-18T07:26:55;-9.10;99.90
20459;DHT22;10388;52.314;7.938;2022-12-18T07:29:26;-9.10;99.90
20459;DHT22;10388;52.314;7.938;2022-12-18T07:31:56;-9.20;99.90
20459;DHT22;10388;52.314;7.938;2022-12-18T07:34:27;-9.00;99.90
20459;DHT22;10388;52.314;7.938;2022-12-18T07:36:57;-9.10;99.90
20459;DHT22;10388;52.314;7.938;2022-12-18T07:39:28;-9.00;99.90
20459;DHT22;10388;52.314;7.938;2022-12-18T07:41:59;-9.00;99.90
20459;DHT22;10388;52.314;7.938;2022-12-18T07:44:48;-9.00;99.90
20459;DHT22;10388;52.314;7.938;2022-12-18T07:47:18;-9.10;99.90
20459;DHT22;10388;52.314;7.938;2022-12-18T07:49:49;-9.10;99.90
20459;DHT22;10388;52.314;7.938;2022-12-18T07:52:20;-9.10;99.90
20459;DHT22;10388;52.314;7.938;2022-12-18T07:54:51;-9.00;99.90
20459;DHT22;10388;52.314;7.938;2022-12-18T07:57:21;-9.00;99.90
20459;DHT22;10388;52.314;7.938;2022-12-18T07:59:52;-8.90;99.90
20459;DHT22;10388;52.314;7.938;2022-12-18T08:02:22;-8.80;99.90
20459;DHT22;10388;52.314;7.938;2022-12-18T08:04:53;-8.80;99.90
20459;DHT22;10388;52.314;7.938;2022-12-18T08:07:24;-8.80;99.90
20459;DHT22;10388;52.314;7.938;2022-12-18T08:09:54;-8.80;99.90
20459;DHT22;10388;52.314;7.938;2022-12-18T08:12:25;-8.70;99.90
20459;DHT22;10388;52.314;7.938;2022-12-18T08:14:55;-8.70;99.90
20459;DHT22;10388;52.314;7.938;2022-12-18T08:17:26;-8.50;99.90
20459;DHT22;10388;52.314;7.938;2022-12-18T08:19:56;-8.40;99.90
20459;DHT22;10388;52.314;7.938;2022-12-18T08:22:27;-8.30;99.90
20459;DHT22;10388;52.314;7.938;2022-12-18T08:24:57;-8.30;99.90
20459;DHT22;10388;52.314;7.938;2022-12-18T08:27:28;-8.30;99.90
20459;DHT22;10388;52.314;7.938;2022-12-18T08:29:59;-8.10;99.90
20459;DHT22;10388;52.314;7.938;2022-12-18T08:32:29;-8.10;99.90
20459;DHT22;10388;52.314;7.938;2022-12-18T08:35:00;-8.00;99.90
20459;DHT22;10388;52.314;7.938;2022-12-18T08:37:31;-8.00;99.90
20459;DHT22;10388;52.314;7.938;2022-12-18T08:40:01;-7.90;99.90
20459;DHT22;10388;52.314;7.938;2022-12-18T08:42:32;-7.90;99.90
20459;DHT22;10388;52.314;7.938;2022-12-18T08:45:21;-7.90;99.90
20459;DHT22;10388;52.314;7.938;2022-12-18T08:47:51;-7.80;99.90
20459;DHT22;10388;52.314;7.938;2022-12-18T08:50:22;-7.70;99.90
20459;DHT22;10388;52.314;7.938;2022-12-18T08:52:52;-7.70;99.90
20459;DHT22;10388;52.314;7.938;2022-12-18T08:55:23;-7.50;99.90
20459;DHT22;10388;52.314;7.938;2022-12-18T08:57:53;-7.40;99.90
20459;DHT22;10388;52.314;7.938;2022-12-18T09:00:24;-7.40;99.90
20459;DHT22;10388;52.314;7.938;2022-12-18T09:02:54;-7.30;99.90
20459;DHT22;10388;52.314;7.938;2022-12-18T09:05:25;-7.20;99.90
20459;DHT22;10388;52.314;7.938;2022-12-18T09:07:55;-7.10;99.90
20459;DHT22;10388;52.314;7.938;2022-12-18T09:10:26;-7.10;99.90
20459;DHT22;10388;52.314;7.938;2022-12-18T09:12:57;-7.10;99.90
20459;DHT22;10388;52.314;7.938;2022-12-18T09:15:27;-7.00;99.90
20459;DHT22;10388;52.314;7.938;2022-12-18T09:17:58;-6.90;99.90
20459;DHT22;10388;52.314;7.938;2022-12-18T09:20:28;-6.80;99.90
20459;DHT22;10388;52.314;7.938;2022-12-18T09:23:03;-6.80;99.90
20459;DHT22;10388;52.314;7.938;2022-12-18T09:25:35;-6.70;99.90
20459;DHT22;10388;52.314;7.938;2022-12-18T09:28:13;-6.60;99.90
20459;DHT22;10388;52.314;7.938;2022-12-18T09:30:48;-6.60;99.90
20459;DHT22;10388;52.314;7.938;2022-12-18T09:33:19;-6.60;99.90
20459;DHT22;10388;52.314;7.938;2022-12-18T09:35:50;-6.50;99.90
20459;DHT22;10388;52.314;7.938;2022-12-18T09:38:20;-6.50;99.90
20459;DHT22;10388;52.314;7.938;2022-12-18T09:41:00;-6.30;99.90
20459;DHT22;10388;52.314;7.938;2022-12-18T09:43:42;-6.20;99.90
20459;DHT22;10388;52.314;7.938;2022-12-18T09:46:40;-6.10;99.90
20459;DHT22;10388;52.314;7.938;2022-12-18T09:49:17;-6.00;99.90
20459;DHT22;10388;52.314;7.938;2022-12-18T09:52:02;-5.90;99.90
20459;DHT22;10388;52.314;7.938;2022-12-18T09:54:38;-5.90;99.90
20459;DHT22;10388;52.314;7.938;2022-12-18T09:57:20;-5.80;99.90
20459;DHT22;10388;52.314;7.938;2022-12-18T10:00:24;-5.70;99.90
20459;DHT22;10388;52.314;7.938;2022-12-18T10:03:08;-5.60;99.90
20459;DHT22;10388;52.314;7.938;2022-12-18T10:06:02;-5.60;99.90
20459;DHT22;10388;52.314;7.938;2022-12-18T10:17:28;-5.10;99.90
20459;DHT22;10388;52.314;7.938;2022-12-18T10:22:57;-5.00;99.90
20459;DHT22;10388;52.314;7.938;2022-12-18T10:28:26;-4.80;99.90
20459;DHT22;10388;52.314;7.938;2022-12-18T10:30:57;-4.70;99.90
20459;DHT22;10388;52.314;7.938;2022-12-18T10:33:30;-4.70;99.90
20459;DHT22;10388;52.314;7.938;2022-12-18T10:36:01;-4.60;99.90
20459;DHT22;10388;52.314;7.938;2022-12-18T10:38:33;-4.60;99.90
20459;DHT22;10388;52.314;7.938;2022-12-18T10:43:37;-4.60;99.90
20459;DHT22;10388;52.314;7.938;2022-12-18T10:48:50;-4.40;99.90
20459;DHT22;10388;52.314;7.938;2022-12-18T10:51:31;-4.40;99.90
20459;DHT22;10388;52.314;7.938;2022-12-18T10:54:06;-4.30;99.90
20459;DHT22;10388;52.314;7.938;2022-12-18T10:56:38;-4.20;99.90
20459;DHT22;10388;52.314;7.938;2022-12-18T10:59:11;-4.20;99.90
20459;DHT22;10388;52.314;7.938;2022-12-18T11:01:59;-4.20;99.90
20459;DHT22;10388;52.314;7.938;2022-12-18T11:04:31;-4.20;99.90
20459;DHT22;10388;52.314;7.938;2022-12-18T11:07:07;-4.20;99.90
20459;DHT22;10388;52.314;7.938;2022-12-18T11:09:39;-4.20;99.90
20459;DHT22;10388;52.314;7.938;2022-12-18T11:14:54;-4.10;99.90
20459;DHT22;10388;52.314;7.938;2022-12-18T11:17:37;-4.00;99.90
20459;DHT22;10388;52.314;7.938;2022-12-18T11:23:04;-3.90;99.90
20459;DHT22;10388;52.314;7.938;2022-12-18T11:25:36;-3.90;99.90
20459;DHT22;10388;52.314;7.938;2022-12-18T11:31:24;-3.80;99.90
20459;DHT22;10388;52.314;7.938;2022-12-18T11:34:11;-3.70;99.90
20459;DHT22;10388;52.314;7.938;2022-12-18T11:36:47;-3.70;99.90
20459;DHT22;10388;52.314;7.938;2022-12-18T11:39:37;-3.60;99.90
20459;DHT22;10388;52.314;7.938;2022-12-18T11:42:21;-3.60;99.90
20459;DHT22;10388;52.314;7.938;2022-12-18T11:44:58;-3.60;99.90
20459;DHT22;10388;52.314;7.938;2022-12-18T11:53:10;-3.50;99.90
20459;DHT22;10388;52.314;7.938;2022-12-18T11:56:35;-3.40;99.90
20459;DHT22;10388;52.314;7.938;2022-12-18T12:01:48;-3.30;99.90
20459;DHT22;10388;52.314;7.938;2022-12-18T12:07:43;-3.30;99.90
20459;DHT22;10388;52.314;7.938;2022-12-18T12:16:18;-3.10;99.90
20459;DHT22;10388;52.314;7.938;2022-12-18T12:21:46;-3.10;99.90
20459;DHT22;10388;52.314;7.938;2022-12-18T12:27:20;-3.00;99.90
20459;DHT22;10388;52.314;7.938;2022-12-18T12:30:07;-3.00;99.90
20459;DHT22;10388;52.314;7.938;2022-12-18T12:32:46;-2.90;99.90
20459;DHT22;10388;52.314;7.938;2022-12-18T12:38:25;-2.90;99.90
20459;DHT22;10388;52.314;7.938;2022-12-18T12:41:02;-2.80;99.90
20459;DHT22;10388;52.314;7.938;2022-12-18T12:43:45;-2.80;99.90
20459;DHT22;10388;52.314;7.938;2022-12-18T12:46:19;-2.80;99.90
20459;DHT22;10388;52.314;7.938;2022-12-18T12:48:55;-2.80;99.90
20459;DHT22;10388;52.314;7.938;2022-12-18T12:51:32;-2.70;99.90
20459;DHT22;10388;52.314;7.938;2022-12-18T12:54:06;-2.70;99.90
20459;DHT22;10388;52.314;7.938;2022-12-18T12:57:19;-2.70;99.90
20459;DHT22;10388;52.314;7.938;2022-12-18T13:02:35;-2.60;99.90
20459;DHT22;10388;52.314;7.938;2022-12-18T13:07:56;-2.50;99.90
20459;DHT22;10388;52.314;7.938;2022-12-18T13:13:08;-2.50;99.90
20459;DHT22;10388;52.314;7.938;2022-12-18T13:15:44;-2.50;99.90
20459;DHT22;10388;52.314;7.938;2022-12-18T13:18:18;-2.50;99.90
20459;DHT22;10388;52.314;7.938;2022-12-18T13:21:02;-2.50;99.90
20459;DHT22;10388;52.314;7.938;2022-12-18T13:23:36;-2.50;99.90
20459;DHT22;10388;52.314;7.938;2022-12-18T13:36:49;-2.30;99.90
20459;DHT22;10388;52.314;7.938;2022-12-18T13:39:21;-2.30;99.90
20459;DHT22;10388;52.314;7.938;2022-12-18T13:42:34;-2.20;99.90
20459;DHT22;10388;52.314;7.938;2022-12-18T13:48:29;-2.30;99.90
20459;DHT22;10388;52.314;7.938;2022-12-18T13:53:43;-2.30;99.90
20459;DHT22;10388;52.314;7.938;2022-12-18T13:56:27;-2.20;99.90
20459;DHT22;10388;52.314;7.938;2022-12-18T14:04:30;-2.20;99.90
20459;DHT22;10388;52.314;7.938;2022-12-18T14:07:16;-2.20;99.90
20459;DHT22;10388;52.314;7.938;2022-12-18T14:09:58;-2.20;99.90
20459;DHT22;10388;52.314;7.938;2022-12-18T14:12:32;-2.20;99.90
20459;DHT22;10388;52.314;7.938;2022-12-18T14:17:59;-2.30;99.90
20459;DHT22;10388;52.314;7.938;2022-12-18T14:20:32;-2.20;99.90
20459;DHT22;10388;52.314;7.938;2022-12-18T14:23:03;-2.20;99.90
20459;DHT22;10388;52.314;7.938;2022-12-18T14:25:33;-2.30;99.90
20459;DHT22;10388;52.314;7.938;2022-12-18T14:30:44;-2.30;99.90
20459;DHT22;10388;52.314;7.938;2022-12-18T14:33:18;-2.30;99.90
20459;DHT22;10388;52.314;7.938;2022-12-18T14:35:59;-2.30;99.90
20459;DHT22;10388;52.314;7.938;2022-12-18T14:38:35;-2.40;99.90
20459;DHT22;10388;52.314;7.938;2022-12-18T14:41:10;-2.30;99.90
20459;DHT22;10388;52.314;7.938;2022-12-18T14:43:43;-2.30;99.90
20459;DHT22;10388;52.314;7.938;2022-12-18T14:52:00;-2.30;99.90
20459;DHT22;10388;52.314;7.938;2022-12-18T14:54:31;-2.30;99.90
20459;DHT22;10388;52.314;7.938;2022-12-18T14:57:20;-2.30;99.90
20459;DHT22;10388;52.314;7.938;2022-12-18T14:59:52;-2.30;99.90
20459;DHT22;10388;52.314;7.938;2022-12-18T15:02:27;-2.30;99.90
20459;DHT22;10388;52.314;7.938;2022-12-18T15:07:55;-2.30;99.90
20459;DHT22;10388;52.314;7.938;2022-12-18T15:10:32;-2.40;99.90
20459;DHT22;10388;52.314;7.938;2022-12-18T15:13:21;-2.40;99.90
20459;DHT22;10388;52.314;7.938;2022-12-18T15:15:57;-2.30;99.90
20459;DHT22;10388;52.314;7.938;2022-12-18T15:18:33;-2.40;99.90
20459;DHT22;10388;52.314;7.938;2022-12-18T15:21:11;-2.30;99.90
20459;DHT22;10388;52.314;7.938;2022-12-18T15:23:46;-2.30;99.90
20459;DHT22;10388;52.314;7.938;2022-12-18T15:26:19;-2.20;99.90
20459;DHT22;10388;52.314;7.938;2022-12-18T15:28:50;-2.30;99.90
20459;DHT22;10388;52.314;7.938;2022-12-18T15:31:29;-2.30;99.90
20459;DHT22;10388;52.314;7.938;2022-12-18T15:34:10;-2.30;99.90
20459;DHT22;10388;52.314;7.938;2022-12-18T15:36:41;-2.20;99.90
20459;DHT22;10388;52.314;7.938;2022-12-18T15:39:12;-2.20;99.90
20459;DHT22;10388;52.314;7.938;2022-12-18T15:41:43;-2.30;99.90
20459;DHT22;10388;52.314;7.938;2022-12-18T15:44:34;-2.30;99.90
20459;DHT22;10388;52.314;7.938;2022-12-18T15:47:11;-2.20;99.90
20459;DHT22;10388;52.314;7.938;2022-12-18T15:49:42;-2.10;99.90
20459;DHT22;10388;52.314;7.938;2022-12-18T15:52:13;-2.20;99.90
20459;DHT22;10388;52.314;7.938;2022-12-18T15:54:44;-2.20;99.90
20459;DHT22;10388;52.314;7.938;2022-12-18T15:57:33;-2.20;99.90
20459;DHT22;10388;52.314;7.938;2022-12-18T16:00:04;-2.10;99.90
20459;DHT22;10388;52.314;7.938;2022-12-18T16:02:35;-2.20;99.90
20459;DHT22;10388;52.314;7.938;2022-12-18T16:05:14;-2.20;99.90
20459;DHT22;10388;52.314;7.938;2022-12-18T16:07:45;-2.10;99.90
20459;DHT22;10388;52.314;7.938;2022-12-18T16:10:16;-2.10;99.90
20459;DHT22;10388;52.314;7.938;2022-12-18T16:12:47;-2.10;99.90
20459;DHT22;10388;52.314;7.938;2022-12-18T16:15:18;-2.10;99.90
20459;DHT22;10388;52.314;7.938;2022-12-18T16:17:48;-2.10;99.90
20459;DHT22;10388;52.314;7.938;2022-12-18T16:20:22;-2.00;99.90
20459;DHT22;10388;52.314;7.938;2022-12-18T16:22:53;-2.00;99.90
20459;DHT22;10388;52.314;7.938;2022-12-18T16:25:26;-2.00;99.90
20459;DHT22;10388;52.314;7.938;2022-12-18T16:27:57;-2.00;99.90
20459;DHT22;10388;52.314;7.938;2022-12-18T16:30:30;-2.00;99.90
20459;DHT22;10388;52.314;7.938;2022-12-18T16:33:00;-2.00;99.90
20459;DHT22;10388;52.314;7.938;2022-12-18T16:35:31;-2.00;99.90
20459;DHT22;10388;52.314;7.938;2022-12-18T16:38:02;-2.00;99.90
20459;DHT22;10388;52.314;7.938;2022-12-18T16:40:33;-2.00;99.90
20459;DHT22;10388;52.314;7.938;2022-12-18T16:43:23;-1.90;99.90
20459;DHT22;10388;52.314;7.938;2022-12-18T16:45:54;-1.90;99.90
20459;DHT22;10388;52.314;7.938;2022-12-18T16:48:27;-1.90;99.90
20459;DHT22;10388;52.314;7.938;2022-12-18T16:51:02;-1.90;99.90
20459;DHT22;10388;52.314;7.938;2022-12-18T16:53:33;-1.90;99.90
20459;DHT22;10388;52.314;7.938;2022-12-18T16:56:04;-1.90;99.90
20459;DHT22;10388;52.314;7.938;2022-12-18T16:58:35;-2.00;99.90
20459;DHT22;10388;52.314;7.938;2022-12-18T17:01:10;-1.90;99.90
20459;DHT22;10388;52.314;7.938;2022-12-18T17:03:40;-1.90;99.90
20459;DHT22;10388;52.314;7.938;2022-12-18T17:06:11;-1.90;99.90
20459;DHT22;10388;52.314;7.938;2022-12-18T17:08:41;-1.80;99.90
20459;DHT22;10388;52.314;7.938;2022-12-18T17:11:12;-1.80;99.90
20459;DHT22;10388;52.314;7.938;2022-12-18T17:13:43;-1.90;99.90
20459;DHT22;10388;52.314;7.938;2022-12-18T17:16:13;-1.80;99.90
20459;DHT22;10388;52.314;7.938;2022-12-18T17:18:44;-1.90;99.90
20459;DHT22;10388;52.314;7.938;2022-12-18T17:21:15;-1.90;99.90
20459;DHT22;10388;52.314;7.938;2022-12-18T17:23:46;-1.80;99.90
20459;DHT22;10388;52.314;7.938;2022-12-18T17:26:16;-1.80;99.90
20459;DHT22;10388;52.314;7.938;2022-12-18T17:28:47;-1.90;99.90
20459;DHT22;10388;52.314;7.938;2022-12-18T17:31:20;-1.80;99.90
20459;DHT22;10388;52.314;7.938;2022-12-18T17:33:51;-1.80;99.90
20459;DHT22;10388;52.314;7.938;2022-12-18T17:36:23;-1.80;99.90
20459;DHT22;10388;52.314;7.938;2022-12-18T17:38:55;-1.70;99.90
20459;DHT22;10388;52.314;7.938;2022-12-18T17:41:27;-1.70;99.90
20459;DHT22;10388;52.314;7.938;2022-12-18T17:44:00;-1.70;99.90
20459;DHT22;10388;52.314;7.938;2022-12-18T17:46:32;-1.70;99.90
20459;DHT22;10388;52.314;7.938;2022-12-18T17:49:03;-1.70;99.90
20459;DHT22;10388;52.314;7.938;2022-12-18T17:51:34;-1.70;99.90
20459;DHT22;10388;52.314;7.938;2022-12-18T17:54:04;-1.70;99.90
20459;DHT22;10388;52.314;7.938;2022-12-18T17:56:35;-1.60;99.90
20459;DHT22;10388;52.314;7.938;2022-12-18T17:59:06;-1.70;99.90
20459;DHT22;10388;52.314;7.938;2022-12-18T18:01:37;-1.70;99.90
20459;DHT22;10388;52.314;7.938;2022-12-18T18:04:07;-1.70;99.90
20459;DHT22;10388;52.314;7.938;2022-12-18T18:06:38;-1.60;99.90
20459;DHT22;10388;52.314;7.938;2022-12-18T18:09:08;-1.60;99.90
20459;DHT22;10388;52.314;7.938;2022-12-18T18:11:39;-1.60;99.90
20459;DHT22;10388;52.314;7.938;2022-12-18T18:14:28;-1.70;99.90
20459;DHT22;10388;52.314;7.938;2022-12-18T18:16:59;-1.60;99.90
20459;DHT22;10388;52.314;7.938;2022-12-18T18:19:31;-1.60;99.90
20459;DHT22;10388;52.314;7.938;2022-12-18T18:22:02;-1.60;99.90
20459;DHT22;10388;52.314;7.938;2022-12-18T18:24:33;-1.60;99.90
20459;DHT22;10388;52.314;7.938;2022-12-18T18:27:03;-1.40;99.90
20459;DHT22;10388;52.314;7.938;2022-12-18T18:29:34;-1.40;99.90
20459;DHT22;10388;52.314;7.938;2022-12-18T18:32:05;-1.40;99.90
20459;DHT22;10388;52.314;7.938;2022-12-18T18:34:36;-1.30;99.90
20459;DHT22;10388;52.314;7.938;2022-12-18T18:37:08;-1.30;99.90
20459;DHT22;10388;52.314;7.938;2022-12-18T18:39:38;-1.30;99.90
20459;DHT22;10388;52.314;7.938;2022-12-18T18:42:09;-1.20;99.90
20459;DHT22;10388;52.314;7.938;2022-12-18T18:44:40;-1.20;99.90
20459;DHT22;10388;52.314;7.938;2022-12-18T18:47:10;-1.20;99.90
20459;DHT22;10388;52.314;7.938;2022-12-18T18:49:41;-1.20;99.90
20459;DHT22;10388;52.314;7.938;2022-12-18T18:52:11;-1.20;99.90
20459;DHT22;10388;52.314;7.938;2022-12-18T18:54:42;-1.20;99.90
20459;DHT22;10388;52.314;7.938;2022-12-18T18:57:12;-0.90;99.90
20459;DHT22;10388;52.314;7.938;2022-12-18T18:59:43;-1.00;99.90